Time;durP1;ratioP1;P1;durP2;ratioP2;P2;SDS_P1;SDS_P2;PMS_P1;PMS_P2;Temp;Humidity;BMP_temperature;BMP_pressure;BME280_temperature;BME280_humidity;BME280_pressure;Samples;Min_cycle;Max_cycle;Signal;HPM_P1;HPM_P2
2022/07/19 00:13:56;;;;;;;9.40;5.70;;;;;;;19.70;100.00;100928.14;655884;1277;139859;-88
2022/07/19 00:29:00;;;;;;;10.60;6.50;;;;;;;19.70;100.00;100930.59;655709;1277;138887;-88
2022/07/19 00:44:04;;;;;;;9.30;5.30;;;;;;;19.73;100.00;100929.98;656550;1277;139243;-87
2022/07/19 00:59:07;;;;;;;8.90;5.00;;;;;;;19.69;100.00;100923.95;657490;1277;138791;-87
2022/07/19 01:14:11;;;;;;;7.80;5.30;;;;;;;19.46;100.00;100916.89;657166;1278;138650;-87
2022/07/19 01:29:16;;;;;;;8.90;5.20;;;;;;;19.37;100.00;100911.27;656339;1277;139810;-86
2022/07/19 01:44:20;;;;;;;9.20;5.50;;;;;;;19.39;100.00;100901.19;655438;1277;140309;-87
2022/07/19 01:59:23;;;;;;;9.00;5.70;;;;;;;19.34;100.00;100896.59;657602;1277;139072;-87
2022/07/19 02:14:26;;;;;;;10.40;5.40;;;;;;;19.25;100.00;100893.41;658117;1277;139064;-87
2022/07/19 02:29:29;;;;;;;8.50;6.10;;;;;;;19.19;100.00;100891.05;658111;1277;139544;-87
2022/07/19 02:44:32;;;;;;;7.50;5.10;;;;;;;19.26;100.00;100899.08;657620;1277;139767;-88
2022/07/19 02:59:36;;;;;;;12.40;6.90;;;;;;;19.29;100.00;100889.48;656049;1277;139565;-89
2022/07/19 03:14:39;;;;;;;10.00;4.60;;;;;;;19.28;100.00;100896.02;657691;1277;139077;-88
2022/07/19 03:29:42;;;;;;;7.50;4.60;;;;;;;19.28;100.00;100888.80;657128;1277;139096;-87
2022/07/19 03:44:45;;;;;;;12.00;5.00;;;;;;;19.30;100.00;100891.07;657201;1277;138925;-89
2022/07/19 03:59:49;;;;;;;10.00;5.10;;;;;;;19.39;100.00;100891.16;658437;1277;140476;-87
2022/07/19 04:14:52;;;;;;;10.70;5.70;;;;;;;19.46;100.00;100890.62;658012;1277;139352;-88
2022/07/19 04:29:56;;;;;;;15.30;6.90;;;;;;;19.58;100.00;100889.26;657955;1277;140523;-87
2022/07/19 04:44:59;;;;;;;14.10;7.30;;;;;;;19.83;100.00;100883.69;657686;1276;140704;-87
2022/07/19 05:00:06;;;;;;;13.90;8.10;;;;;;;20.18;100.00;100888.02;657736;1277;139248;-87
2022/07/19 05:15:10;;;;;;;14.60;7.30;;;;;;;20.54;100.00;100891.91;662039;1276;139402;-87
2022/07/19 05:30:18;;;;;;;11.50;7.00;;;;;;;20.82;100.00;100888.05;660792;1276;139715;-86
2022/07/19 05:45:22;;;;;;;11.40;7.70;;;;;;;21.10;100.00;100873.36;656913;1277;141732;-87
2022/07/19 06:00:26;;;;;;;10.40;8.10;;;;;;;21.70;100.00;100870.61;656004;1277;140030;-88
2022/07/19 06:15:29;;;;;;;8.70;6.00;;;;;;;22.18;100.00;100864.65;658792;1277;139545;-87
2022/07/19 06:30:32;;;;;;;30.50;14.20;;;;;;;22.76;100.00;100863.82;655558;1277;140149;-88
2022/07/19 06:45:36;;;;;;;6.30;5.00;;;;;;;23.21;99.25;100861.64;658024;1277;140891;-89
2022/07/19 07:00:40;;;;;;;8.40;4.50;;;;;;;23.62;95.71;100868.64;658230;1277;140909;-90
2022/07/19 07:15:45;;;;;;;6.80;4.40;;;;;;;24.12;91.50;100857.36;657591;1277;261595;-89
2022/07/19 07:30:48;;;;;;;6.40;4.10;;;;;;;24.83;86.50;100847.55;656072;1277;139293;-91
2022/07/19 07:45:51;;;;;;;6.10;4.00;;;;;;;25.53;81.11;100843.31;657570;1277;140738;-90
2022/07/19 08:00:54;;;;;;;5.20;3.40;;;;;;;26.20;73.26;100840.63;667159;1277;138336;-89
2022/07/19 08:15:57;;;;;;;3.80;3.40;;;;;;;27.23;69.99;100831.47;658775;1277;138239;-91
2022/07/19 08:31:01;;;;;;;6.20;4.90;;;;;;;27.86;65.52;100835.48;657693;1277;139100;-89
2022/07/19 08:46:14;;;;;;;7.70;4.30;;;;;;;28.22;62.31;100827.85;660873;1276;139912;-89
2022/07/19 09:01:17;;;;;;;6.30;4.40;;;;;;;28.65;60.02;100820.25;657948;1277;139401;-88
2022/07/19 09:16:21;;;;;;;6.60;4.40;;;;;;;29.25;58.36;100823.20;656921;1277;139075;-89
2022/07/19 09:31:25;;;;;;;7.10;3.70;;;;;;;29.23;55.44;100807.28;657624;1277;139329;-89
2022/07/19 09:46:36;;;;;;;9.20;4.30;;;;;;;29.90;55.62;100801.23;659173;1277;138440;-88
2022/07/19 10:01:42;;;;;;;8.10;4.20;;;;;;;30.49;54.10;100795.28;658467;1277;138205;-89
2022/07/19 10:17:14;;;;;;;4.60;3.20;;;;;;;30.59;52.11;100787.22;657074;1277;139303;-87
2022/07/19 10:32:17;;;;;;;4.00;3.40;;;;;;;31.04;51.39;100773.23;657291;1277;138904;-89
2022/07/19 10:47:42;;;;;;;5.30;3.40;;;;;;;31.60;51.05;100761.63;657743;1277;142926;-88
2022/07/19 11:02:47;;;;;;;6.50;4.20;;;;;;;32.52;50.12;100754.82;661903;1277;138378;-88
2022/07/19 11:17:58;;;;;;;7.60;4.50;;;;;;;32.38;48.09;100757.26;656908;1277;140301;-88
2022/07/19 11:33:04;;;;;;;5.30;3.70;;;;;;;32.54;48.50;100742.77;663530;1275;139168;-88
2022/07/19 11:48:08;;;;;;;7.10;4.30;;;;;;;33.04;47.40;100736.29;656355;1277;139206;-87
2022/07/19 12:03:18;;;;;;;5.30;4.10;;;;;;;33.06;47.18;100729.69;657857;1277;139043;-88
2022/07/19 12:18:44;;;;;;;5.50;4.20;;;;;;;33.36;46.62;100728.64;658905;1275;138909;-87
2022/07/19 12:34:00;;;;;;;6.50;4.70;;;;;;;33.53;46.73;100719.98;658306;1276;139943;-87
2022/07/19 12:49:04;;;;;;;6.10;3.60;;;;;;;33.37;46.30;100715.09;657978;1277;139462;-85
2022/07/19 13:04:08;;;;;;;5.50;4.40;;;;;;;33.98;46.80;100700.56;659458;1277;138424;-84
2022/07/19 13:19:12;;;;;;;4.40;3.70;;;;;;;34.71;45.91;100698.17;657889;1277;138382;-85
2022/07/19 13:34:16;;;;;;;5.60;3.60;;;;;;;35.23;45.69;100701.73;658810;1277;139999;-84
2022/07/19 13:49:20;;;;;;;3.70;3.40;;;;;;;35.17;44.86;100701.74;659935;1277;139235;-85
2022/07/19 14:04:23;;;;;;;4.00;2.90;;;;;;;34.55;43.40;100694.35;657536;1279;140968;-85
2022/07/19 14:19:27;;;;;;;4.70;3.50;;;;;;;34.72;44.77;100682.19;657796;1277;139067;-83
2022/07/19 14:34:30;;;;;;;4.90;3.60;;;;;;;35.24;44.68;100681.93;657954;1277;139535;-84
2022/07/19 14:49:39;;;;;;;4.10;3.70;;;;;;;35.34;45.32;100675.26;656425;1280;139983;-85
2022/07/19 15:04:45;;;;;;;8.50;4.20;;;;;;;35.45;45.73;100683.91;660553;1277;140580;-84
2022/07/19 15:19:49;;;;;;;4.00;3.20;;;;;;;35.27;45.47;100682.92;657526;1277;139413;-85
2022/07/19 15:34:54;;;;;;;5.00;2.80;;;;;;;35.17;46.00;100683.69;661535;1277;138817;-82
2022/07/19 15:49:57;;;;;;;3.90;3.00;;;;;;;34.80;45.75;100685.02;657296;1277;139946;-81
2022/07/19 16:05:01;;;;;;;6.90;4.50;;;;;;;34.52;45.93;100688.94;656459;1277;139149;-82
2022/07/19 16:20:07;;;;;;;19.50;13.80;;;;;;;34.28;46.38;100681.13;656755;1277;138521;-82
2022/07/19 16:35:11;;;;;;;16.30;10.40;;;;;;;33.69;46.67;100686.52;655904;1277;139349;-83
2022/07/19 16:50:14;;;;;;;15.80;8.60;;;;;;;33.42;47.30;100700.62;659698;1277;140019;-83
2022/07/19 17:05:18;;;;;;;21.80;12.40;;;;;;;32.59;47.51;100700.15;656363;1277;139315;-82
2022/07/19 17:20:22;;;;;;;7.50;4.60;;;;;;;32.38;49.21;100702.34;657333;1280;139931;-83
2022/07/19 17:35:26;;;;;;;11.10;8.60;;;;;;;32.02;50.89;100713.73;658123;1280;138801;-84
2022/07/19 17:50:29;;;;;;;13.20;8.80;;;;;;;31.18;54.19;100729.80;658341;1277;140033;-83
2022/07/19 18:05:37;;;;;;;16.50;9.40;;;;;;;30.38;57.47;100741.66;656166;1277;138780;-84
2022/07/19 18:20:41;;;;;;;23.40;13.30;;;;;;;29.67;60.39;100749.97;658064;1277;139932;-87
2022/07/19 18:35:45;;;;;;;20.90;14.00;;;;;;;29.11;62.61;100750.38;658505;1277;138771;-86
2022/07/19 18:50:49;;;;;;;18.20;11.80;;;;;;;28.44;64.39;100751.02;659052;1276;139192;-86
2022/07/19 19:05:54;;;;;;;19.10;11.40;;;;;;;27.91;66.12;100773.38;658515;1277;138742;-85
2022/07/19 19:20:58;;;;;;;20.40;11.20;;;;;;;27.23;67.81;100788.86;657421;1277;357122;-88
2022/07/19 19:36:01;;;;;;;10.80;7.60;;;;;;;26.44;70.56;100804.66;655959;1278;139119;-86
2022/07/19 19:51:05;;;;;;;8.80;5.90;;;;;;;25.89;72.66;100812.55;657764;1277;138827;-86
2022/07/19 20:06:11;;;;;;;11.00;6.90;;;;;;;25.48;73.57;100822.30;657669;1277;138482;-86
2022/07/19 20:21:14;;;;;;;10.60;6.90;;;;;;;24.98;74.44;100829.79;658104;1277;138728;-87
2022/07/19 20:36:19;;;;;;;15.60;7.50;;;;;;;24.47;73.99;100828.43;658592;1277;138996;-86
2022/07/19 20:51:23;;;;;;;25.70;12.00;;;;;;;24.20;73.65;100842.65;658374;1277;139981;-85
2022/07/19 21:06:26;;;;;;;37.60;18.90;;;;;;;23.78;76.37;100839.41;660452;1277;139362;-86
2022/07/19 21:21:30;;;;;;;18.20;10.10;;;;;;;23.38;78.08;100842.85;662355;1277;139493;-85
2022/07/19 21:36:36;;;;;;;22.50;12.80;;;;;;;22.95;79.09;100849.50;659915;1276;138583;-87
2022/07/19 21:51:39;;;;;;;31.00;15.40;;;;;;;22.44;81.25;100858.08;659848;1277;139423;-85
2022/07/19 22:06:44;;;;;;;17.90;10.40;;;;;;;22.11;82.76;100855.20;660491;1276;138728;-86
2022/07/19 22:21:48;;;;;;;14.10;8.40;;;;;;;21.77;83.84;100857.09;660810;1277;139570;-85
2022/07/19 22:36:51;;;;;;;11.10;7.90;;;;;;;21.30;84.71;100866.64;659870;1277;138542;-86
2022/07/19 23:11:11;;;;;;;15.50;8.30;;;;;;;20.28;89.49;100883.96;639972;1313;545076;-86
2022/07/19 23:26:14;;;;;;;13.80;8.80;;;;;;;20.01;90.26;100888.59;653678;1287;139072;-85
2022/07/19 23:41:18;;;;;;;11.00;7.70;;;;;;;19.67;91.37;100884.59;653750;1287;138899;-85
2022/07/19 23:56:21;;;;;;;12.60;8.50;;;;;;;19.21;92.67;100894.23;654295;1287;139018;-86
